sensor_id;sensor_type;location;lat;lon;timestamp;P1;durP1;ratioP1;P2;durP2;ratioP2
71383;SDS011;61466;52.166;5.004;2022-12-10T00:00:39;31.92;;;12.85;;
71383;SDS011;61466;52.166;5.004;2022-12-10T00:03:04;30.08;;;10.88;;
71383;SDS011;61466;52.166;5.004;2022-12-10T00:05:32;26.42;;;12.85;;
71383;SDS011;61466;52.166;5.004;2022-12-10T00:07:58;29.95;;;12.48;;
71383;SDS011;61466;52.166;5.004;2022-12-10T00:10:23;23.70;;;11.13;;
71383;SDS011;61466;52.166;5.004;2022-12-10T00:12:49;31.73;;;10.88;;
71383;SDS011;61466;52.166;5.004;2022-12-10T00:15:14;21.70;;;9.80;;
71383;SDS011;61466;52.166;5.004;2022-12-10T00:17:41;26.83;;;10.88;;
71383;SDS011;61466;52.166;5.004;2022-12-10T00:20:06;28.15;;;12.77;;
71383;SDS011;61466;52.166;5.004;2022-12-10T00:22:32;28.30;;;11.40;;
71383;SDS011;61466;52.166;5.004;2022-12-10T00:24:57;26.17;;;9.57;;
71383;SDS011;61466;52.166;5.004;2022-12-10T00:27:23;30.40;;;12.45;;
71383;SDS011;61466;52.166;5.004;2022-12-10T00:29:48;24.50;;;10.48;;
71383;SDS011;61466;52.166;5.004;2022-12-10T00:32:13;29.15;;;10.35;;
71383;SDS011;61466;52.166;5.004;2022-12-10T00:34:39;23.48;;;10.63;;
71383;SDS011;61466;52.166;5.004;2022-12-10T00:37:04;22.08;;;9.52;;
71383;SDS011;61466;52.166;5.004;2022-12-10T00:39:29;35.58;;;10.60;;
71383;SDS011;61466;52.166;5.004;2022-12-10T00:41:54;24.83;;;9.50;;
71383;SDS011;61466;52.166;5.004;2022-12-10T00:44:20;30.73;;;11.80;;
71383;SDS011;61466;52.166;5.004;2022-12-10T00:46:45;22.85;;;10.30;;
71383;SDS011;61466;52.166;5.004;2022-12-10T00:49:11;21.95;;;10.95;;
71383;SDS011;61466;52.166;5.004;2022-12-10T00:51:37;31.13;;;10.18;;
71383;SDS011;61466;52.166;5.004;2022-12-10T00:54:02;24.58;;;9.93;;
71383;SDS011;61466;52.166;5.004;2022-12-10T00:56:28;25.77;;;9.55;;
71383;SDS011;61466;52.166;5.004;2022-12-10T00:58:55;17.00;;;8.00;;
71383;SDS011;61466;52.166;5.004;2022-12-10T01:01:22;25.27;;;9.82;;
71383;SDS011;61466;52.166;5.004;2022-12-10T01:03:50;18.60;;;8.80;;
71383;SDS011;61466;52.166;5.004;2022-12-10T01:06:19;19.50;;;8.23;;
71383;SDS011;61466;52.166;5.004;2022-12-10T01:08:48;18.90;;;9.38;;
71383;SDS011;61466;52.166;5.004;2022-12-10T01:11:15;15.57;;;7.13;;
71383;SDS011;61466;52.166;5.004;2022-12-10T01:13:43;26.00;;;9.32;;
71383;SDS011;61466;52.166;5.004;2022-12-10T01:16:11;18.85;;;7.05;;
71383;SDS011;61466;52.166;5.004;2022-12-10T01:18:37;29.30;;;9.20;;
71383;SDS011;61466;52.166;5.004;2022-12-10T01:21:03;21.92;;;9.98;;
71383;SDS011;61466;52.166;5.004;2022-12-10T01:23:33;23.73;;;9.45;;
71383;SDS011;61466;52.166;5.004;2022-12-10T01:26:01;25.65;;;9.73;;
71383;SDS011;61466;52.166;5.004;2022-12-10T01:28:32;24.45;;;11.52;;
71383;SDS011;61466;52.166;5.004;2022-12-10T01:31:00;29.17;;;10.65;;
71383;SDS011;61466;52.166;5.004;2022-12-10T01:33:30;20.77;;;10.20;;
71383;SDS011;61466;52.166;5.004;2022-12-10T01:35:56;24.40;;;10.40;;
71383;SDS011;61466;52.166;5.004;2022-12-10T01:38:26;31.02;;;12.52;;
71383;SDS011;61466;52.166;5.004;2022-12-10T01:40:51;28.58;;;9.68;;
71383;SDS011;61466;52.166;5.004;2022-12-10T01:43:17;34.50;;;11.35;;
71383;SDS011;61466;52.166;5.004;2022-12-10T01:45:42;33.30;;;10.75;;
71383;SDS011;61466;52.166;5.004;2022-12-10T01:48:07;24.00;;;8.77;;
71383;SDS011;61466;52.166;5.004;2022-12-10T01:50:33;41.17;;;11.57;;
71383;SDS011;61466;52.166;5.004;2022-12-10T01:52:59;34.50;;;11.02;;
71383;SDS011;61466;52.166;5.004;2022-12-10T01:58:13;29.90;;;10.90;;
71383;SDS011;61466;52.166;5.004;2022-12-10T02:00:43;38.20;;;13.30;;
71383;SDS011;61466;52.166;5.004;2022-12-10T02:03:29;31.38;;;10.77;;
71383;SDS011;61466;52.166;5.004;2022-12-10T02:07:14;35.70;;;12.40;;
71383;SDS011;61466;52.166;5.004;2022-12-10T02:09:51;34.38;;;12.40;;
71383;SDS011;61466;52.166;5.004;2022-12-10T02:12:48;27.33;;;10.55;;
71383;SDS011;61466;52.166;5.004;2022-12-10T02:15:19;34.50;;;12.48;;
71383;SDS011;61466;52.166;5.004;2022-12-10T02:18:00;35.60;;;12.57;;
71383;SDS011;61466;52.166;5.004;2022-12-10T02:20:35;28.35;;;12.20;;
71383;SDS011;61466;52.166;5.004;2022-12-10T02:23:10;36.55;;;10.65;;
71383;SDS011;61466;52.166;5.004;2022-12-10T02:25:43;35.90;;;13.43;;
71383;SDS011;61466;52.166;5.004;2022-12-10T02:30:43;28.85;;;10.63;;
71383;SDS011;61466;52.166;5.004;2022-12-10T02:33:10;45.45;;;13.63;;
71383;SDS011;61466;52.166;5.004;2022-12-10T02:35:38;43.55;;;12.45;;
71383;SDS011;61466;52.166;5.004;2022-12-10T02:41:06;37.55;;;13.27;;
71383;SDS011;61466;52.166;5.004;2022-12-10T02:43:38;33.35;;;10.35;;
71383;SDS011;61466;52.166;5.004;2022-12-10T02:46:05;30.40;;;10.13;;
71383;SDS011;61466;52.166;5.004;2022-12-10T02:48:31;37.15;;;13.35;;
71383;SDS011;61466;52.166;5.004;2022-12-10T02:50:59;32.10;;;10.70;;
71383;SDS011;61466;52.166;5.004;2022-12-10T02:53:24;43.10;;;12.07;;
71383;SDS011;61466;52.166;5.004;2022-12-10T02:56:13;34.97;;;13.10;;
71383;SDS011;61466;52.166;5.004;2022-12-10T02:58:49;30.08;;;11.20;;
71383;SDS011;61466;52.166;5.004;2022-12-10T03:04:22;37.22;;;12.82;;
71383;SDS011;61466;52.166;5.004;2022-12-10T03:06:58;39.20;;;12.48;;
71383;SDS011;61466;52.166;5.004;2022-12-10T03:09:48;35.30;;;11.18;;
71383;SDS011;61466;52.166;5.004;2022-12-10T03:12:20;31.92;;;12.30;;
71383;SDS011;61466;52.166;5.004;2022-12-10T03:14:50;37.33;;;11.95;;
71383;SDS011;61466;52.166;5.004;2022-12-10T03:17:18;28.55;;;11.68;;
71383;SDS011;61466;52.166;5.004;2022-12-10T03:19:46;42.78;;;9.70;;
71383;SDS011;61466;52.166;5.004;2022-12-10T03:22:14;33.25;;;12.07;;
71383;SDS011;61466;52.166;5.004;2022-12-10T03:24:43;48.33;;;12.70;;
71383;SDS011;61466;52.166;5.004;2022-12-10T03:27:09;40.75;;;11.80;;
71383;SDS011;61466;52.166;5.004;2022-12-10T03:29:37;24.55;;;12.43;;
71383;SDS011;61466;52.166;5.004;2022-12-10T03:32:09;28.02;;;11.10;;
71383;SDS011;61466;52.166;5.004;2022-12-10T03:34:35;29.95;;;12.43;;
71383;SDS011;61466;52.166;5.004;2022-12-10T03:37:02;40.15;;;12.52;;
71383;SDS011;61466;52.166;5.004;2022-12-10T03:39:28;30.85;;;11.02;;
71383;SDS011;61466;52.166;5.004;2022-12-10T03:41:54;31.17;;;12.20;;
71383;SDS011;61466;52.166;5.004;2022-12-10T03:44:29;30.63;;;11.20;;
71383;SDS011;61466;52.166;5.004;2022-12-10T03:46:56;29.92;;;11.73;;
71383;SDS011;61466;52.166;5.004;2022-12-10T03:49:22;34.20;;;14.68;;
71383;SDS011;61466;52.166;5.004;2022-12-10T03:51:48;35.45;;;12.45;;
71383;SDS011;61466;52.166;5.004;2022-12-10T03:54:13;30.20;;;10.90;;
71383;SDS011;61466;52.166;5.004;2022-12-10T03:56:39;34.42;;;12.35;;
71383;SDS011;61466;52.166;5.004;2022-12-10T03:59:04;40.63;;;14.27;;
71383;SDS011;61466;52.166;5.004;2022-12-10T04:01:29;28.38;;;12.43;;
71383;SDS011;61466;52.166;5.004;2022-12-10T04:03:55;38.35;;;11.07;;
71383;SDS011;61466;52.166;5.004;2022-12-10T04:06:20;30.85;;;12.80;;
71383;SDS011;61466;52.166;5.004;2022-12-10T04:08:46;29.63;;;10.52;;
71383;SDS011;61466;52.166;5.004;2022-12-10T04:11:12;27.80;;;10.90;;
71383;SDS011;61466;52.166;5.004;2022-12-10T04:13:39;46.28;;;11.75;;
71383;SDS011;61466;52.166;5.004;2022-12-10T04:16:24;39.60;;;13.95;;
71383;SDS011;61466;52.166;5.004;2022-12-10T04:19:14;48.65;;;11.57;;
71383;SDS011;61466;52.166;5.004;2022-12-10T04:21:41;30.88;;;11.75;;
71383;SDS011;61466;52.166;5.004;2022-12-10T04:24:27;42.85;;;12.55;;
71383;SDS011;61466;52.166;5.004;2022-12-10T04:27:13;28.15;;;10.85;;
71383;SDS011;61466;52.166;5.004;2022-12-10T04:29:43;34.17;;;11.48;;
71383;SDS011;61466;52.166;5.004;2022-12-10T04:32:09;24.50;;;11.13;;
71383;SDS011;61466;52.166;5.004;2022-12-10T04:34:35;28.42;;;12.07;;
71383;SDS011;61466;52.166;5.004;2022-12-10T04:37:02;43.25;;;15.00;;
71383;SDS011;61466;52.166;5.004;2022-12-10T04:39:28;29.05;;;10.45;;
71383;SDS011;61466;52.166;5.004;2022-12-10T04:41:53;26.25;;;11.57;;
71383;SDS011;61466;52.166;5.004;2022-12-10T04:44:19;34.38;;;13.07;;
71383;SDS011;61466;52.166;5.004;2022-12-10T04:46:44;31.52;;;11.07;;
71383;SDS011;61466;52.166;5.004;2022-12-10T04:49:10;30.23;;;12.68;;
71383;SDS011;61466;52.166;5.004;2022-12-10T04:51:36;49.53;;;11.50;;
71383;SDS011;61466;52.166;5.004;2022-12-10T04:54:02;35.65;;;11.80;;
71383;SDS011;61466;52.166;5.004;2022-12-10T04:56:28;43.70;;;13.68;;
71383;SDS011;61466;52.166;5.004;2022-12-10T04:58:57;36.58;;;10.82;;
71383;SDS011;61466;52.166;5.004;2022-12-10T05:01:23;34.08;;;11.98;;
71383;SDS011;61466;52.166;5.004;2022-12-10T05:03:49;21.95;;;9.73;;
71383;SDS011;61466;52.166;5.004;2022-12-10T05:06:15;33.53;;;10.38;;
71383;SDS011;61466;52.166;5.004;2022-12-10T05:08:42;31.33;;;10.18;;
71383;SDS011;61466;52.166;5.004;2022-12-10T05:11:09;26.52;;;9.63;;
71383;SDS011;61466;52.166;5.004;2022-12-10T05:13:37;20.33;;;9.98;;
71383;SDS011;61466;52.166;5.004;2022-12-10T05:16:03;25.45;;;10.90;;
71383;SDS011;61466;52.166;5.004;2022-12-10T05:18:31;23.23;;;9.32;;
71383;SDS011;61466;52.166;5.004;2022-12-10T05:21:00;35.08;;;9.88;;
71383;SDS011;61466;52.166;5.004;2022-12-10T05:23:27;31.33;;;8.43;;
71383;SDS011;61466;52.166;5.004;2022-12-10T05:28:34;27.55;;;10.77;;
71383;SDS011;61466;52.166;5.004;2022-12-10T05:31:02;36.05;;;10.18;;
71383;SDS011;61466;52.166;5.004;2022-12-10T05:33:28;21.65;;;8.40;;
71383;SDS011;61466;52.166;5.004;2022-12-10T05:36:00;16.00;;;6.63;;
71383;SDS011;61466;52.166;5.004;2022-12-10T05:38:28;39.00;;;9.40;;
71383;SDS011;61466;52.166;5.004;2022-12-10T05:40:55;28.73;;;8.45;;
71383;SDS011;61466;52.166;5.004;2022-12-10T05:43:25;22.13;;;8.73;;
71383;SDS011;61466;52.166;5.004;2022-12-10T05:45:50;26.95;;;7.95;;
71383;SDS011;61466;52.166;5.004;2022-12-10T05:48:15;16.88;;;7.03;;
71383;SDS011;61466;52.166;5.004;2022-12-10T05:50:41;16.08;;;7.30;;
71383;SDS011;61466;52.166;5.004;2022-12-10T05:53:07;16.45;;;7.65;;
71383;SDS011;61466;52.166;5.004;2022-12-10T05:55:32;20.23;;;10.40;;
71383;SDS011;61466;52.166;5.004;2022-12-10T05:57:59;16.77;;;7.97;;
71383;SDS011;61466;52.166;5.004;2022-12-10T06:00:25;16.98;;;6.22;;
71383;SDS011;61466;52.166;5.004;2022-12-10T06:02:52;20.17;;;8.27;;
71383;SDS011;61466;52.166;5.004;2022-12-10T06:05:17;18.23;;;5.57;;
71383;SDS011;61466;52.166;5.004;2022-12-10T06:07:43;26.33;;;9.05;;
71383;SDS011;61466;52.166;5.004;2022-12-10T06:10:08;23.23;;;9.57;;
71383;SDS011;61466;52.166;5.004;2022-12-10T06:12:34;17.92;;;8.40;;
71383;SDS011;61466;52.166;5.004;2022-12-10T06:15:00;14.60;;;5.38;;
71383;SDS011;61466;52.166;5.004;2022-12-10T06:17:25;27.00;;;10.38;;
71383;SDS011;61466;52.166;5.004;2022-12-10T06:19:50;16.70;;;7.18;;
71383;SDS011;61466;52.166;5.004;2022-12-10T06:22:16;20.05;;;7.43;;
71383;SDS011;61466;52.166;5.004;2022-12-10T06:24:41;27.38;;;8.40;;
71383;SDS011;61466;52.166;5.004;2022-12-10T06:27:06;22.95;;;8.25;;
71383;SDS011;61466;52.166;5.004;2022-12-10T06:29:32;33.45;;;8.73;;
71383;SDS011;61466;52.166;5.004;2022-12-10T06:31:57;41.38;;;8.02;;
71383;SDS011;61466;52.166;5.004;2022-12-10T06:34:22;20.20;;;8.35;;
71383;SDS011;61466;52.166;5.004;2022-12-10T06:36:48;20.15;;;8.15;;
71383;SDS011;61466;52.166;5.004;2022-12-10T06:39:13;20.80;;;7.55;;
71383;SDS011;61466;52.166;5.004;2022-12-10T06:41:39;19.33;;;7.97;;
71383;SDS011;61466;52.166;5.004;2022-12-10T06:44:08;26.42;;;9.27;;
71383;SDS011;61466;52.166;5.004;2022-12-10T06:46:34;22.13;;;8.43;;
71383;SDS011;61466;52.166;5.004;2022-12-10T06:49:00;19.23;;;10.10;;
71383;SDS011;61466;52.166;5.004;2022-12-10T06:51:25;23.23;;;9.05;;
71383;SDS011;61466;52.166;5.004;2022-12-10T06:53:51;20.80;;;9.25;;
71383;SDS011;61466;52.166;5.004;2022-12-10T06:56:17;27.83;;;10.00;;
71383;SDS011;61466;52.166;5.004;2022-12-10T06:58:43;16.33;;;8.20;;
71383;SDS011;61466;52.166;5.004;2022-12-10T07:03:46;24.35;;;9.07;;
71383;SDS011;61466;52.166;5.004;2022-12-10T07:06:19;19.92;;;7.45;;
71383;SDS011;61466;52.166;5.004;2022-12-10T07:08:45;21.85;;;9.75;;
71383;SDS011;61466;52.166;5.004;2022-12-10T07:11:12;18.35;;;7.65;;
71383;SDS011;61466;52.166;5.004;2022-12-10T07:13:39;20.60;;;8.75;;
71383;SDS011;61466;52.166;5.004;2022-12-10T07:16:12;18.77;;;7.47;;
71383;SDS011;61466;52.166;5.004;2022-12-10T07:18:38;19.30;;;7.65;;
71383;SDS011;61466;52.166;5.004;2022-12-10T07:21:17;17.67;;;6.25;;
71383;SDS011;61466;52.166;5.004;2022-12-10T07:23:49;18.30;;;7.35;;
71383;SDS011;61466;52.166;5.004;2022-12-10T07:26:16;17.50;;;6.70;;
71383;SDS011;61466;52.166;5.004;2022-12-10T07:28:42;18.98;;;7.35;;
71383;SDS011;61466;52.166;5.004;2022-12-10T07:31:08;26.88;;;7.68;;
71383;SDS011;61466;52.166;5.004;2022-12-10T07:33:34;13.88;;;7.05;;
71383;SDS011;61466;52.166;5.004;2022-12-10T07:36:02;22.60;;;8.73;;
71383;SDS011;61466;52.166;5.004;2022-12-10T07:38:33;31.02;;;8.85;;
71383;SDS011;61466;52.166;5.004;2022-12-10T07:41:01;17.27;;;8.23;;
71383;SDS011;61466;52.166;5.004;2022-12-10T07:43:28;22.23;;;8.13;;
71383;SDS011;61466;52.166;5.004;2022-12-10T07:45:54;17.30;;;7.05;;
71383;SDS011;61466;52.166;5.004;2022-12-10T07:48:20;18.13;;;9.05;;
71383;SDS011;61466;52.166;5.004;2022-12-10T07:50:45;20.40;;;7.75;;
71383;SDS011;61466;52.166;5.004;2022-12-10T07:53:11;20.20;;;8.35;;
71383;SDS011;61466;52.166;5.004;2022-12-10T07:55:36;17.67;;;8.27;;
71383;SDS011;61466;52.166;5.004;2022-12-10T07:58:02;17.65;;;6.63;;
71383;SDS011;61466;52.166;5.004;2022-12-10T08:00:28;21.20;;;9.13;;
71383;SDS011;61466;52.166;5.004;2022-12-10T08:02:53;21.20;;;8.65;;
71383;SDS011;61466;52.166;5.004;2022-12-10T08:05:19;22.35;;;8.90;;
71383;SDS011;61466;52.166;5.004;2022-12-10T08:07:44;18.35;;;8.82;;
71383;SDS011;61466;52.166;5.004;2022-12-10T08:10:10;24.20;;;8.80;;
71383;SDS011;61466;52.166;5.004;2022-12-10T08:12:35;23.50;;;9.32;;
71383;SDS011;61466;52.166;5.004;2022-12-10T08:15:01;15.65;;;8.02;;
71383;SDS011;61466;52.166;5.004;2022-12-10T08:17:27;20.52;;;9.25;;
71383;SDS011;61466;52.166;5.004;2022-12-10T08:19:53;21.08;;;8.98;;
71383;SDS011;61466;52.166;5.004;2022-12-10T08:22:19;21.50;;;8.32;;
71383;SDS011;61466;52.166;5.004;2022-12-10T08:24:45;29.10;;;7.03;;
71383;SDS011;61466;52.166;5.004;2022-12-10T08:27:10;18.95;;;9.45;;
71383;SDS011;61466;52.166;5.004;2022-12-10T08:29:36;18.52;;;8.93;;
71383;SDS011;61466;52.166;5.004;2022-12-10T08:32:01;24.55;;;9.15;;
71383;SDS011;61466;52.166;5.004;2022-12-10T08:34:27;14.18;;;7.28;;
71383;SDS011;61466;52.166;5.004;2022-12-10T08:36:52;20.05;;;6.85;;
71383;SDS011;61466;52.166;5.004;2022-12-10T08:39:17;16.90;;;8.60;;
71383;SDS011;61466;52.166;5.004;2022-12-10T08:41:43;25.70;;;9.10;;
71383;SDS011;61466;52.166;5.004;2022-12-10T08:44:10;18.70;;;10.13;;
71383;SDS011;61466;52.166;5.004;2022-12-10T08:46:36;18.88;;;7.95;;
71383;SDS011;61466;52.166;5.004;2022-12-10T08:49:02;19.10;;;8.02;;
71383;SDS011;61466;52.166;5.004;2022-12-10T08:51:28;27.13;;;10.43;;
71383;SDS011;61466;52.166;5.004;2022-12-10T08:53:53;27.02;;;8.85;;
71383;SDS011;61466;52.166;5.004;2022-12-10T08:56:19;17.05;;;7.97;;
71383;SDS011;61466;52.166;5.004;2022-12-10T08:58:45;19.02;;;8.60;;
71383;SDS011;61466;52.166;5.004;2022-12-10T09:01:11;31.50;;;10.43;;
71383;SDS011;61466;52.166;5.004;2022-12-10T09:03:38;22.45;;;9.60;;
71383;SDS011;61466;52.166;5.004;2022-12-10T09:06:04;17.08;;;7.32;;
71383;SDS011;61466;52.166;5.004;2022-12-10T09:08:33;26.52;;;9.18;;
71383;SDS011;61466;52.166;5.004;2022-12-10T09:11:04;29.95;;;9.82;;
71383;SDS011;61466;52.166;5.004;2022-12-10T09:13:43;23.55;;;8.98;;
71383;SDS011;61466;52.166;5.004;2022-12-10T09:16:09;17.88;;;9.50;;
71383;SDS011;61466;52.166;5.004;2022-12-10T09:18:34;17.67;;;9.70;;
71383;SDS011;61466;52.166;5.004;2022-12-10T09:21:03;18.60;;;7.60;;
71383;SDS011;61466;52.166;5.004;2022-12-10T09:23:30;42.95;;;10.75;;
71383;SDS011;61466;52.166;5.004;2022-12-10T09:25:55;26.15;;;10.18;;
71383;SDS011;61466;52.166;5.004;2022-12-10T09:28:21;20.08;;;8.70;;
71383;SDS011;61466;52.166;5.004;2022-12-10T09:30:54;22.75;;;8.85;;
71383;SDS011;61466;52.166;5.004;2022-12-10T09:33:23;26.30;;;9.65;;
71383;SDS011;61466;52.166;5.004;2022-12-10T09:35:49;29.85;;;11.80;;
71383;SDS011;61466;52.166;5.004;2022-12-10T09:38:15;17.80;;;7.22;;
71383;SDS011;61466;52.166;5.004;2022-12-10T09:40:43;25.85;;;8.50;;
71383;SDS011;61466;52.166;5.004;2022-12-10T09:43:19;24.13;;;8.63;;
71383;SDS011;61466;52.166;5.004;2022-12-10T09:57:25;29.33;;;9.00;;
71383;SDS011;61466;52.166;5.004;2022-12-10T10:02:25;17.92;;;9.27;;
71383;SDS011;61466;52.166;5.004;2022-12-10T10:07:33;23.33;;;9.25;;
71383;SDS011;61466;52.166;5.004;2022-12-10T10:10:07;27.13;;;9.85;;
71383;SDS011;61466;52.166;5.004;2022-12-10T10:12:55;22.25;;;8.85;;
71383;SDS011;61466;52.166;5.004;2022-12-10T10:15:35;23.23;;;10.20;;
71383;SDS011;61466;52.166;5.004;2022-12-10T10:18:04;23.60;;;8.27;;
71383;SDS011;61466;52.166;5.004;2022-12-10T10:20:38;22.98;;;9.68;;
71383;SDS011;61466;52.166;5.004;2022-12-10T10:23:03;22.52;;;10.57;;
71383;SDS011;61466;52.166;5.004;2022-12-10T10:25:29;26.60;;;9.68;;
71383;SDS011;61466;52.166;5.004;2022-12-10T10:27:54;25.98;;;10.02;;
71383;SDS011;61466;52.166;5.004;2022-12-10T10:30:20;33.05;;;10.52;;
71383;SDS011;61466;52.166;5.004;2022-12-10T10:32:49;23.50;;;9.63;;
71383;SDS011;61466;52.166;5.004;2022-12-10T10:38:07;25.38;;;10.32;;
71383;SDS011;61466;52.166;5.004;2022-12-10T10:40:39;24.33;;;9.50;;
71383;SDS011;61466;52.166;5.004;2022-12-10T10:43:08;31.10;;;9.45;;
71383;SDS011;61466;52.166;5.004;2022-12-10T10:45:54;26.67;;;9.07;;
71383;SDS011;61466;52.166;5.004;2022-12-10T10:48:25;20.80;;;7.60;;
71383;SDS011;61466;52.166;5.004;2022-12-10T10:50:53;27.60;;;10.93;;
71383;SDS011;61466;52.166;5.004;2022-12-10T10:55:59;21.83;;;9.82;;
71383;SDS011;61466;52.166;5.004;2022-12-10T10:58:32;21.38;;;9.07;;
71383;SDS011;61466;52.166;5.004;2022-12-10T11:01:04;25.98;;;11.00;;
71383;SDS011;61466;52.166;5.004;2022-12-10T11:03:32;28.13;;;9.75;;
71383;SDS011;61466;52.166;5.004;2022-12-10T11:05:59;28.85;;;10.48;;
71383;SDS011;61466;52.166;5.004;2022-12-10T11:08:28;34.15;;;10.68;;
71383;SDS011;61466;52.166;5.004;2022-12-10T11:11:03;34.58;;;12.57;;
71383;SDS011;61466;52.166;5.004;2022-12-10T11:13:32;29.20;;;11.13;;
71383;SDS011;61466;52.166;5.004;2022-12-10T11:18:51;26.05;;;10.73;;
71383;SDS011;61466;52.166;5.004;2022-12-10T11:21:21;26.58;;;9.23;;
71383;SDS011;61466;52.166;5.004;2022-12-10T11:23:54;22.55;;;8.77;;
71383;SDS011;61466;52.166;5.004;2022-12-10T11:28:57;32.60;;;10.30;;
71383;SDS011;61466;52.166;5.004;2022-12-10T11:40:31;29.90;;;9.63;;
71383;SDS011;61466;52.166;5.004;2022-12-10T11:48:55;22.63;;;8.63;;
71383;SDS011;61466;52.166;5.004;2022-12-10T11:56:54;25.00;;;8.65;;
71383;SDS011;61466;52.166;5.004;2022-12-10T11:59:46;30.27;;;11.38;;
71383;SDS011;61466;52.166;5.004;2022-12-10T12:10:51;26.67;;;9.00;;
71383;SDS011;61466;52.166;5.004;2022-12-10T12:16:09;27.38;;;9.90;;
71383;SDS011;61466;52.166;5.004;2022-12-10T12:18:55;32.25;;;10.23;;
71383;SDS011;61466;52.166;5.004;2022-12-10T12:21:25;32.92;;;11.00;;
71383;SDS011;61466;52.166;5.004;2022-12-10T12:24:01;20.80;;;8.82;;
71383;SDS011;61466;52.166;5.004;2022-12-10T12:26:35;25.60;;;8.80;;
71383;SDS011;61466;52.166;5.004;2022-12-10T12:37:14;27.95;;;9.43;;
71383;SDS011;61466;52.166;5.004;2022-12-10T12:39:43;31.98;;;10.38;;
71383;SDS011;61466;52.166;5.004;2022-12-10T12:42:22;25.42;;;9.48;;
71383;SDS011;61466;52.166;5.004;2022-12-10T12:47:39;17.55;;;7.75;;
71383;SDS011;61466;52.166;5.004;2022-12-10T12:50:23;25.95;;;9.88;;
71383;SDS011;61466;52.166;5.004;2022-12-10T12:52:53;34.15;;;8.95;;
71383;SDS011;61466;52.166;5.004;2022-12-10T13:00:41;20.02;;;8.77;;
71383;SDS011;61466;52.166;5.004;2022-12-10T13:06:11;20.02;;;7.45;;
71383;SDS011;61466;52.166;5.004;2022-12-10T13:08:42;22.77;;;7.60;;
71383;SDS011;61466;52.166;5.004;2022-12-10T13:11:29;27.13;;;7.47;;
71383;SDS011;61466;52.166;5.004;2022-12-10T13:24:18;17.77;;;6.85;;
71383;SDS011;61466;52.166;5.004;2022-12-10T13:32:13;21.83;;;7.43;;
71383;SDS011;61466;52.166;5.004;2022-12-10T13:34:41;23.95;;;8.98;;
71383;SDS011;61466;52.166;5.004;2022-12-10T13:39:46;14.75;;;5.93;;
71383;SDS011;61466;52.166;5.004;2022-12-10T13:47:55;20.02;;;7.70;;
71383;SDS011;61466;52.166;5.004;2022-12-10T13:53:28;24.13;;;9.45;;
71383;SDS011;61466;52.166;5.004;2022-12-10T13:56:18;19.52;;;7.90;;
71383;SDS011;61466;52.166;5.004;2022-12-10T14:04:34;29.88;;;9.32;;
71383;SDS011;61466;52.166;5.004;2022-12-10T14:07:12;27.73;;;9.20;;
71383;SDS011;61466;52.166;5.004;2022-12-10T14:09:50;25.08;;;8.10;;
71383;SDS011;61466;52.166;5.004;2022-12-10T14:12:25;27.20;;;10.75;;
71383;SDS011;61466;52.166;5.004;2022-12-10T14:14:56;29.95;;;11.10;;
71383;SDS011;61466;52.166;5.004;2022-12-10T14:17:30;29.73;;;8.80;;
71383;SDS011;61466;52.166;5.004;2022-12-10T14:19:58;29.48;;;9.68;;
71383;SDS011;61466;52.166;5.004;2022-12-10T14:25:05;26.10;;;9.13;;
71383;SDS011;61466;52.166;5.004;2022-12-10T14:27:36;21.05;;;9.95;;
71383;SDS011;61466;52.166;5.004;2022-12-10T14:30:03;31.15;;;12.02;;
71383;SDS011;61466;52.166;5.004;2022-12-10T14:32:35;30.80;;;10.05;;
71383;SDS011;61466;52.166;5.004;2022-12-10T14:35:06;39.30;;;11.60;;
71383;SDS011;61466;52.166;5.004;2022-12-10T14:37:37;27.23;;;9.85;;
71383;SDS011;61466;52.166;5.004;2022-12-10T14:40:07;25.02;;;9.48;;
71383;SDS011;61466;52.166;5.004;2022-12-10T14:42:33;33.88;;;13.73;;
71383;SDS011;61466;52.166;5.004;2022-12-10T14:45:03;34.92;;;13.05;;
71383;SDS011;61466;52.166;5.004;2022-12-10T14:47:37;33.63;;;10.35;;
71383;SDS011;61466;52.166;5.004;2022-12-10T14:50:06;24.33;;;9.43;;
71383;SDS011;61466;52.166;5.004;2022-12-10T14:52:44;38.40;;;11.82;;
71383;SDS011;61466;52.166;5.004;2022-12-10T14:55:15;31.38;;;10.52;;
71383;SDS011;61466;52.166;5.004;2022-12-10T14:57:54;25.75;;;8.55;;
71383;SDS011;61466;52.166;5.004;2022-12-10T15:02:51;26.13;;;9.32;;
71383;SDS011;61466;52.166;5.004;2022-12-10T15:05:38;28.88;;;9.68;;
71383;SDS011;61466;52.166;5.004;2022-12-10T15:08:07;29.90;;;10.23;;
71383;SDS011;61466;52.166;5.004;2022-12-10T15:10:41;35.95;;;10.70;;
71383;SDS011;61466;52.166;5.004;2022-12-10T15:13:44;23.23;;;8.30;;
71383;SDS011;61466;52.166;5.004;2022-12-10T15:16:06;28.75;;;10.07;;
71383;SDS011;61466;52.166;5.004;2022-12-10T15:18:44;32.35;;;11.10;;
71383;SDS011;61466;52.166;5.004;2022-12-10T15:21:14;29.55;;;9.90;;
71383;SDS011;61466;52.166;5.004;2022-12-10T15:23:44;30.25;;;11.70;;
71383;SDS011;61466;52.166;5.004;2022-12-10T15:28:47;36.20;;;9.70;;
71383;SDS011;61466;52.166;5.004;2022-12-10T15:38:49;33.95;;;10.43;;
71383;SDS011;61466;52.166;5.004;2022-12-10T15:41:32;28.45;;;11.13;;
71383;SDS011;61466;52.166;5.004;2022-12-10T15:44:03;33.25;;;11.75;;
71383;SDS011;61466;52.166;5.004;2022-12-10T15:46:31;37.15;;;11.75;;
71383;SDS011;61466;52.166;5.004;2022-12-10T15:48:57;36.35;;;11.55;;
71383;SDS011;61466;52.166;5.004;2022-12-10T15:51:23;26.90;;;10.05;;
71383;SDS011;61466;52.166;5.004;2022-12-10T15:53:49;29.52;;;10.02;;
71383;SDS011;61466;52.166;5.004;2022-12-10T15:56:14;28.65;;;9.23;;
71383;SDS011;61466;52.166;5.004;2022-12-10T15:58:39;34.03;;;11.52;;
71383;SDS011;61466;52.166;5.004;2022-12-10T16:01:07;36.35;;;12.15;;
71383;SDS011;61466;52.166;5.004;2022-12-10T16:03:36;27.92;;;10.63;;
71383;SDS011;61466;52.166;5.004;2022-12-10T16:06:05;49.90;;;13.40;;
71383;SDS011;61466;52.166;5.004;2022-12-10T16:08:31;34.70;;;11.90;;
71383;SDS011;61466;52.166;5.004;2022-12-10T16:11:00;29.40;;;10.38;;
71383;SDS011;61466;52.166;5.004;2022-12-10T16:13:32;32.05;;;10.07;;
71383;SDS011;61466;52.166;5.004;2022-12-10T16:16:08;31.15;;;10.52;;
71383;SDS011;61466;52.166;5.004;2022-12-10T16:18:35;32.90;;;12.82;;
71383;SDS011;61466;52.166;5.004;2022-12-10T16:21:02;37.47;;;12.57;;
71383;SDS011;61466;52.166;5.004;2022-12-10T16:23:32;35.83;;;10.77;;
71383;SDS011;61466;52.166;5.004;2022-12-10T16:25:58;32.63;;;11.07;;
71383;SDS011;61466;52.166;5.004;2022-12-10T16:28:24;30.08;;;9.27;;
71383;SDS011;61466;52.166;5.004;2022-12-10T16:30:51;38.42;;;12.20;;
71383;SDS011;61466;52.166;5.004;2022-12-10T16:33:18;42.63;;;12.30;;
71383;SDS011;61466;52.166;5.004;2022-12-10T16:35:45;27.70;;;9.45;;
71383;SDS011;61466;52.166;5.004;2022-12-10T16:38:15;29.25;;;10.23;;
71383;SDS011;61466;52.166;5.004;2022-12-10T16:40:41;35.30;;;10.48;;
71383;SDS011;61466;52.166;5.004;2022-12-10T16:43:15;31.65;;;9.13;;
71383;SDS011;61466;52.166;5.004;2022-12-10T16:45:43;32.30;;;11.60;;
71383;SDS011;61466;52.166;5.004;2022-12-10T16:48:08;22.77;;;10.57;;
71383;SDS011;61466;52.166;5.004;2022-12-10T16:50:34;27.05;;;11.20;;
71383;SDS011;61466;52.166;5.004;2022-12-10T16:53:02;32.65;;;10.70;;
71383;SDS011;61466;52.166;5.004;2022-12-10T16:55:31;29.67;;;13.43;;
71383;SDS011;61466;52.166;5.004;2022-12-10T16:57:58;30.02;;;10.88;;
71383;SDS011;61466;52.166;5.004;2022-12-10T17:00:23;35.92;;;10.85;;
71383;SDS011;61466;52.166;5.004;2022-12-10T17:02:50;35.38;;;10.60;;